Time;durP1;ratioP1;P1;durP2;ratioP2;P2;SDS_P1;SDS_P2;PMS_P1;PMS_P2;Temp;Humidity;BMP_temperature;BMP_pressure;BME280_temperature;BME280_humidity;BME280_pressure;Samples;Min_cycle;Max_cycle;Signal;HPM_P1;HPM_P2
2022/07/06 00:01:38;;;;;;;11.52;1.67;;;;;;;;;;5138650;27;20031;-78
2022/07/06 00:04:04;;;;;;;4.60;1.55;;;;;;;;;;5138893;27;20035;-78
2022/07/06 00:06:29;;;;;;;7.90;2.00;;;;;;;;;;5138515;27;20067;-78
2022/07/06 00:08:55;;;;;;;5.88;1.90;;;;;;;;;;5121454;27;20552;-78
2022/07/06 00:11:21;;;;;;;12.65;1.67;;;;;;;;;;5122140;27;20091;-78
2022/07/06 00:13:48;;;;;;;4.50;1.92;;;;;;;;;;5138105;27;20046;-78
2022/07/06 00:16:15;;;;;;;2.90;1.50;;;;;;;;;;5138169;27;20035;-78
2022/07/06 00:18:40;;;;;;;3.10;1.70;;;;;;;;;;5139100;27;20050;-78
2022/07/06 00:21:06;;;;;;;6.30;1.58;;;;;;;;;;5138609;27;20035;-78
2022/07/06 00:23:34;;;;;;;4.22;1.63;;;;;;;;;;5138221;27;20031;-78
2022/07/06 00:25:59;;;;;;;8.02;3.17;;;;;;;;;;5120265;27;20401;-78
2022/07/06 00:28:27;;;;;;;3.05;1.42;;;;;;;;;;5120831;27;20126;-78
2022/07/06 00:30:53;;;;;;;2.90;1.42;;;;;;;;;;5138207;27;20052;-78
2022/07/06 00:33:22;;;;;;;3.70;1.98;;;;;;;;;;5138180;27;20396;-78
2022/07/06 00:35:48;;;;;;;3.85;1.70;;;;;;;;;;5138143;27;20039;-78
2022/07/06 00:38:14;;;;;;;4.22;1.88;;;;;;;;;;5107060;28;20043;-77
2022/07/06 00:40:40;;;;;;;6.90;2.08;;;;;;;;;;5100214;28;20035;-78
2022/07/06 00:43:06;;;;;;;4.35;1.55;;;;;;;;;;5100239;28;20032;-78
2022/07/06 00:45:32;;;;;;;8.38;1.83;;;;;;;;;;5117333;28;20031;-77
2022/07/06 00:47:57;;;;;;;5.22;1.50;;;;;;;;;;5099855;28;20126;-78
2022/07/06 00:50:25;;;;;;;6.25;2.13;;;;;;;;;;5100712;28;20361;-78
2022/07/06 00:53:01;;;;;;;4.95;1.63;;;;;;;;;;5100878;28;20470;-78
2022/07/06 00:55:31;;;;;;;4.05;1.70;;;;;;;;;;5117575;28;20047;-78
2022/07/06 00:58:01;;;;;;;6.70;1.80;;;;;;;;;;5100434;28;20047;-77
2022/07/06 01:00:28;;;;;;;2.83;1.30;;;;;;;;;;5101117;28;20035;-78
2022/07/06 01:02:54;;;;;;;2.85;1.40;;;;;;;;;;5118886;28;20034;-78
2022/07/06 01:05:20;;;;;;;2.97;1.52;;;;;;;;;;5137601;27;20031;-78
2022/07/06 01:07:48;;;;;;;4.90;1.35;;;;;;;;;;5160436;27;20035;-78
2022/07/06 01:10:16;;;;;;;3.28;1.40;;;;;;;;;;5141313;27;20027;-78
2022/07/06 01:12:43;;;;;;;5.47;1.40;;;;;;;;;;5140782;27;20499;-78
2022/07/06 01:15:19;;;;;;;2.88;1.30;;;;;;;;;;5141567;27;20572;-77
2022/07/06 01:17:46;;;;;;;4.22;1.40;;;;;;;;;;5141339;27;20066;-78
2022/07/06 01:20:16;;;;;;;5.60;1.88;;;;;;;;;;5158629;27;20027;-78
2022/07/06 01:22:43;;;;;;;5.22;1.15;;;;;;;;;;5158382;27;20038;-78
2022/07/06 01:25:11;;;;;;;4.68;1.35;;;;;;;;;;5141200;27;20383;-78
2022/07/06 01:27:40;;;;;;;5.70;1.33;;;;;;;;;;5141823;27;20034;-78
2022/07/06 01:30:08;;;;;;;3.65;1.27;;;;;;;;;;5158557;27;20083;-78
2022/07/06 01:32:34;;;;;;;3.17;1.45;;;;;;;;;;5141521;27;20034;-78
2022/07/06 01:35:01;;;;;;;5.75;1.52;;;;;;;;;;5131683;27;20035;-78
2022/07/06 01:37:31;;;;;;;10.68;1.75;;;;;;;;;;5136394;27;20115;-78
2022/07/06 01:40:04;;;;;;;3.97;1.45;;;;;;;;;;5137746;27;20498;-78
2022/07/06 01:42:30;;;;;;;3.53;1.38;;;;;;;;;;5137787;27;20060;-78
2022/07/06 01:44:55;;;;;;;5.95;1.40;;;;;;;;;;5120070;27;20031;-78
2022/07/06 01:47:21;;;;;;;3.67;1.20;;;;;;;;;;5137486;27;20035;-78
2022/07/06 01:49:49;;;;;;;4.63;1.17;;;;;;;;;;5137538;27;20452;-78
2022/07/06 01:52:14;;;;;;;4.47;1.30;;;;;;;;;;5137355;27;20038;-78
2022/07/06 01:54:41;;;;;;;1.98;1.13;;;;;;;;;;5138448;27;20373;-78
2022/07/06 01:57:08;;;;;;;3.38;1.17;;;;;;;;;;5120429;27;20396;-78
2022/07/06 01:59:34;;;;;;;2.72;1.08;;;;;;;;;;5120269;27;20035;-78
2022/07/06 02:02:05;;;;;;;4.50;1.40;;;;;;;;;;5119681;27;20057;-78
2022/07/06 02:04:31;;;;;;;3.42;1.52;;;;;;;;;;5136648;27;20396;-78
2022/07/06 02:07:01;;;;;;;3.88;1.27;;;;;;;;;;5136360;27;20499;-77
2022/07/06 02:09:29;;;;;;;3.10;1.30;;;;;;;;;;5120875;27;20031;-78
2022/07/06 02:11:55;;;;;;;3.90;1.30;;;;;;;;;;5120703;27;20495;-78
2022/07/06 02:14:20;;;;;;;3.83;1.65;;;;;;;;;;5136896;27;20030;-77
2022/07/06 02:16:47;;;;;;;4.35;1.20;;;;;;;;;;5154567;27;20026;-76
2022/07/06 02:19:17;;;;;;;7.53;1.63;;;;;;;;;;5137660;27;20087;-76
2022/07/06 02:21:44;;;;;;;4.57;1.17;;;;;;;;;;5137089;27;20129;-78
2022/07/06 02:24:11;;;;;;;5.35;1.67;;;;;;;;;;5154169;27;20069;-77
2022/07/06 02:26:38;;;;;;;7.25;1.42;;;;;;;;;;5137126;27;20027;-77
2022/07/06 02:29:04;;;;;;;3.17;1.45;;;;;;;;;;5154403;27;20433;-76
2022/07/06 02:31:31;;;;;;;7.88;1.75;;;;;;;;;;5136914;27;20034;-77
2022/07/06 02:33:57;;;;;;;8.25;1.48;;;;;;;;;;5155592;27;20110;-77
2022/07/06 02:36:23;;;;;;;6.15;1.75;;;;;;;;;;5154483;27;20042;-77
2022/07/06 02:38:49;;;;;;;5.60;2.25;;;;;;;;;;5136940;27;20050;-77
2022/07/06 02:41:15;;;;;;;7.75;1.80;;;;;;;;;;5106071;27;20035;-77
2022/07/06 02:43:41;;;;;;;4.40;1.67;;;;;;;;;;5113834;28;20023;-77
2022/07/06 02:46:09;;;;;;;5.82;1.77;;;;;;;;;;5097870;28;20590;-80
2022/07/06 02:48:36;;;;;;;7.85;1.95;;;;;;;;;;5114727;28;20039;-77
2022/07/06 02:51:01;;;;;;;4.97;2.35;;;;;;;;;;5112942;28;20039;-76
2022/07/06 02:53:29;;;;;;;5.68;2.40;;;;;;;;;;5112598;28;20473;-75
2022/07/06 02:55:56;;;;;;;5.72;2.25;;;;;;;;;;5095144;28;20035;-76
2022/07/06 02:58:23;;;;;;;7.95;2.13;;;;;;;;;;5095160;28;20106;-75
2022/07/06 03:00:48;;;;;;;10.43;3.10;;;;;;;;;;5095588;28;20499;-76
2022/07/06 03:03:14;;;;;;;13.95;1.85;;;;;;;;;;5112201;28;20032;-78
2022/07/06 03:05:40;;;;;;;4.80;1.98;;;;;;;;;;5112229;28;20397;-78
2022/07/06 03:08:06;;;;;;;14.95;2.30;;;;;;;;;;5095838;28;20061;-77
2022/07/06 03:10:34;;;;;;;7.28;2.20;;;;;;;;;;5104837;28;20059;-76
2022/07/06 03:12:59;;;;;;;2.78;1.50;;;;;;;;;;5132997;27;20034;-76
2022/07/06 03:15:25;;;;;;;8.93;1.73;;;;;;;;;;5114904;28;20084;-76
2022/07/06 03:17:51;;;;;;;5.30;1.65;;;;;;;;;;5115771;28;20076;-76
2022/07/06 03:20:18;;;;;;;4.53;1.90;;;;;;;;;;5132830;28;20112;-76
2022/07/06 03:22:45;;;;;;;5.03;1.80;;;;;;;;;;5132877;28;20270;-76
2022/07/06 03:25:13;;;;;;;5.90;1.70;;;;;;;;;;5115886;28;20064;-76
2022/07/06 03:27:40;;;;;;;4.25;1.63;;;;;;;;;;5115763;28;20120;-76
2022/07/06 03:30:06;;;;;;;5.05;1.65;;;;;;;;;;5115548;28;20035;-77
2022/07/06 03:32:33;;;;;;;5.10;1.98;;;;;;;;;;5116156;28;20393;-77
2022/07/06 03:35:01;;;;;;;5.55;1.90;;;;;;;;;;5116148;27;20030;-76
2022/07/06 03:37:28;;;;;;;4.05;1.65;;;;;;;;;;5119094;27;20480;-78
2022/07/06 03:39:56;;;;;;;3.65;1.55;;;;;;;;;;5119937;27;20385;-76
2022/07/06 03:42:22;;;;;;;5.60;1.77;;;;;;;;;;5119690;27;20049;-77
2022/07/06 03:44:48;;;;;;;4.75;1.40;;;;;;;;;;5119447;27;20043;-78
2022/07/06 03:47:14;;;;;;;6.38;1.67;;;;;;;;;;5119468;27;20035;-77
2022/07/06 03:49:40;;;;;;;6.07;1.70;;;;;;;;;;5119651;27;20534;-78
2022/07/06 03:52:09;;;;;;;8.25;1.83;;;;;;;;;;5119707;27;20126;-77
2022/07/06 03:54:42;;;;;;;5.82;1.80;;;;;;;;;;5120435;27;20063;-76
2022/07/06 03:57:11;;;;;;;7.30;2.22;;;;;;;;;;5136126;27;20031;-77
2022/07/06 03:59:38;;;;;;;3.17;1.33;;;;;;;;;;5136375;27;20055;-78
2022/07/06 04:02:04;;;;;;;3.78;1.73;;;;;;;;;;5119087;27;20084;-76
2022/07/06 04:04:31;;;;;;;9.48;1.27;;;;;;;;;;5119072;27;20058;-76
2022/07/06 04:06:57;;;;;;;6.65;1.75;;;;;;;;;;5119004;27;20080;-76
2022/07/06 04:09:24;;;;;;;2.72;1.48;;;;;;;;;;5119124;27;20035;-76
2022/07/06 04:11:51;;;;;;;3.60;1.40;;;;;;;;;;5118970;27;20038;-78
2022/07/06 04:14:16;;;;;;;12.50;1.60;;;;;;;;;;5135928;27;20037;-77
2022/07/06 04:16:42;;;;;;;5.90;1.60;;;;;;;;;;5115281;28;20122;-77
2022/07/06 04:19:08;;;;;;;4.38;1.52;;;;;;;;;;5098615;28;20020;-77
2022/07/06 04:21:35;;;;;;;5.47;1.60;;;;;;;;;;5098554;28;20475;-77
2022/07/06 04:24:02;;;;;;;4.97;1.95;;;;;;;;;;5098328;28;20042;-77
2022/07/06 04:26:27;;;;;;;6.13;1.55;;;;;;;;;;5115295;28;20028;-76
2022/07/06 04:28:55;;;;;;;4.90;1.60;;;;;;;;;;5098832;28;20024;-76
2022/07/06 04:31:24;;;;;;;3.17;1.48;;;;;;;;;;5115228;28;20055;-77
2022/07/06 04:33:52;;;;;;;5.45;1.77;;;;;;;;;;5098229;28;20388;-76
2022/07/06 04:36:18;;;;;;;3.25;1.25;;;;;;;;;;5097858;28;20487;-76
2022/07/06 04:38:47;;;;;;;4.97;1.50;;;;;;;;;;5134707;27;20147;-76
2022/07/06 04:41:13;;;;;;;8.15;1.75;;;;;;;;;;5118426;27;20035;-76
2022/07/06 04:43:39;;;;;;;5.07;1.23;;;;;;;;;;5135448;27;20046;-76
2022/07/06 04:46:05;;;;;;;7.50;1.80;;;;;;;;;;5134880;27;20037;-76
2022/07/06 04:48:38;;;;;;;5.00;1.65;;;;;;;;;;5117728;27;20031;-76
2022/07/06 04:51:04;;;;;;;2.67;1.40;;;;;;;;;;5135251;27;20034;-77
2022/07/06 04:53:30;;;;;;;3.22;1.63;;;;;;;;;;5136478;27;20031;-77
2022/07/06 04:55:56;;;;;;;3.15;1.30;;;;;;;;;;5135449;27;20027;-76
2022/07/06 04:58:26;;;;;;;8.30;2.38;;;;;;;;;;5118681;27;20083;-76
2022/07/06 05:00:51;;;;;;;4.15;1.25;;;;;;;;;;5118241;27;20422;-76
2022/07/06 05:03:17;;;;;;;3.45;1.20;;;;;;;;;;5135017;27;20031;-77
2022/07/06 05:05:42;;;;;;;6.47;1.83;;;;;;;;;;5135135;27;20038;-77
2022/07/06 05:08:10;;;;;;;4.13;1.65;;;;;;;;;;5117949;27;20091;-77
2022/07/06 05:10:37;;;;;;;7.30;1.90;;;;;;;;;;5118353;27;20062;-77
2022/07/06 05:13:03;;;;;;;5.82;1.60;;;;;;;;;;5117971;27;20073;-77
2022/07/06 05:15:30;;;;;;;11.70;1.92;;;;;;;;;;5117416;27;20118;-77
2022/07/06 05:17:56;;;;;;;11.63;1.80;;;;;;;;;;5135012;27;20031;-77
2022/07/06 05:20:22;;;;;;;5.40;1.35;;;;;;;;;;5118181;27;20171;-78
2022/07/06 05:22:51;;;;;;;12.20;1.80;;;;;;;;;;5118036;27;20054;-77
2022/07/06 05:25:22;;;;;;;6.30;1.38;;;;;;;;;;5118465;27;20111;-77
2022/07/06 05:27:48;;;;;;;16.63;1.67;;;;;;;;;;5134931;27;20034;-77
2022/07/06 05:30:15;;;;;;;8.65;1.27;;;;;;;;;;5118003;27;20027;-78
2022/07/06 05:32:42;;;;;;;5.75;1.33;;;;;;;;;;5117956;27;20030;-79
2022/07/06 05:35:10;;;;;;;4.43;1.30;;;;;;;;;;5134707;27;20027;-77
2022/07/06 05:37:37;;;;;;;3.30;1.20;;;;;;;;;;5117133;27;20050;-78
2022/07/06 05:40:04;;;;;;;3.88;1.27;;;;;;;;;;5118357;27;20031;-77
2022/07/06 05:42:30;;;;;;;6.18;1.30;;;;;;;;;;5134581;27;20442;-77
2022/07/06 05:44:56;;;;;;;3.72;1.52;;;;;;;;;;5118395;27;20027;-78
2022/07/06 05:50:13;;;;;;;1.98;1.08;;;;;;;;;;5136625;27;20099;-77
2022/07/06 05:52:59;;;;;;;4.78;1.45;;;;;;;;;;5136817;27;20382;-78
2022/07/06 05:55:27;;;;;;;6.43;1.77;;;;;;;;;;5119699;27;20027;-77
2022/07/06 05:57:55;;;;;;;6.57;1.55;;;;;;;;;;5115847;27;20031;-76
2022/07/06 06:00:27;;;;;;;3.70;1.55;;;;;;;;;;5116634;27;20030;-76
2022/07/06 06:02:58;;;;;;;5.10;1.33;;;;;;;;;;5117201;27;20543;-77
2022/07/06 06:05:25;;;;;;;5.50;1.35;;;;;;;;;;5117605;27;20066;-77
2022/07/06 06:07:55;;;;;;;10.63;2.15;;;;;;;;;;5118300;27;20035;-77
2022/07/06 06:10:24;;;;;;;7.85;1.48;;;;;;;;;;5118756;27;20511;-77
2022/07/06 06:12:53;;;;;;;3.35;1.25;;;;;;;;;;5119257;27;20034;-77
2022/07/06 06:15:22;;;;;;;6.30;1.50;;;;;;;;;;5119091;27;20108;-78
2022/07/06 06:17:48;;;;;;;4.75;1.48;;;;;;;;;;5118608;27;20396;-78
2022/07/06 06:20:14;;;;;;;4.55;1.25;;;;;;;;;;5118981;27;20034;-78
2022/07/06 06:22:59;;;;;;;3.78;1.55;;;;;;;;;;5136265;27;20035;-77
2022/07/06 06:25:28;;;;;;;4.80;1.45;;;;;;;;;;5137565;27;20084;-77
2022/07/06 06:27:57;;;;;;;5.00;1.27;;;;;;;;;;5120081;27;20049;-78
2022/07/06 06:30:25;;;;;;;3.63;1.38;;;;;;;;;;5119312;27;20059;-78
2022/07/06 06:32:51;;;;;;;3.47;1.42;;;;;;;;;;5116429;27;20396;-78
2022/07/06 06:35:17;;;;;;;2.08;1.00;;;;;;;;;;5118676;27;20042;-78
2022/07/06 06:37:44;;;;;;;3.13;1.08;;;;;;;;;;5107892;28;20075;-80
2022/07/06 06:40:10;;;;;;;4.55;1.20;;;;;;;;;;5116049;28;20031;-78
2022/07/06 06:42:37;;;;;;;1.85;1.02;;;;;;;;;;5116669;28;20076;-79
2022/07/06 06:45:07;;;;;;;2.17;0.90;;;;;;;;;;5116969;28;20103;-79
2022/07/06 06:47:32;;;;;;;5.30;1.25;;;;;;;;;;5116330;28;20031;-77
2022/07/06 06:49:57;;;;;;;7.55;1.20;;;;;;;;;;5097105;28;20621;-77
2022/07/06 06:52:23;;;;;;;2.95;1.00;;;;;;;;;;5130826;27;20094;-77
2022/07/06 06:54:48;;;;;;;3.80;1.30;;;;;;;;;;5114548;28;20043;-78
2022/07/06 06:57:15;;;;;;;3.65;1.20;;;;;;;;;;5116775;28;20091;-77
2022/07/06 06:59:44;;;;;;;6.68;1.00;;;;;;;;;;5115156;28;20032;-77
2022/07/06 07:02:10;;;;;;;5.32;1.58;;;;;;;;;;5131899;27;20036;-77
2022/07/06 07:04:35;;;;;;;4.03;1.00;;;;;;;;;;5113845;28;20046;-77
2022/07/06 07:07:00;;;;;;;5.38;1.15;;;;;;;;;;5102413;28;20042;-77
2022/07/06 07:09:27;;;;;;;5.68;1.00;;;;;;;;;;5133616;27;20084;-78
2022/07/06 07:11:53;;;;;;;3.78;1.08;;;;;;;;;;5115934;28;20667;-77
2022/07/06 07:14:19;;;;;;;6.38;1.05;;;;;;;;;;5136408;27;20023;-78
2022/07/06 07:16:45;;;;;;;3.83;1.17;;;;;;;;;;5118975;28;20028;-77
2022/07/06 07:19:10;;;;;;;4.25;1.08;;;;;;;;;;5115672;27;20131;-76
2022/07/06 07:21:35;;;;;;;11.73;1.48;;;;;;;;;;5133910;27;20039;-78
2022/07/06 07:24:01;;;;;;;3.47;0.95;;;;;;;;;;5137541;27;20062;-83
2022/07/06 07:26:26;;;;;;;3.65;1.00;;;;;;;;;;5120706;28;20403;-78
2022/07/06 07:28:52;;;;;;;3.80;1.30;;;;;;;;;;5128480;28;20080;-80
2022/07/06 07:31:17;;;;;;;4.07;1.25;;;;;;;;;;5128882;27;20060;-82
2022/07/06 07:33:44;;;;;;;3.55;0.90;;;;;;;;;;5124226;28;20067;-84
2022/07/06 07:36:10;;;;;;;4.00;1.25;;;;;;;;;;5121149;28;20027;-80
2022/07/06 07:38:35;;;;;;;2.30;1.02;;;;;;;;;;5136998;27;20046;-82
2022/07/06 07:41:01;;;;;;;5.07;1.27;;;;;;;;;;5123246;28;20035;-80
2022/07/06 07:43:26;;;;;;;6.32;1.30;;;;;;;;;;5136946;28;20031;-83
2022/07/06 07:45:52;;;;;;;7.10;1.33;;;;;;;;;;5118833;28;20039;-77
2022/07/06 07:48:18;;;;;;;3.42;1.00;;;;;;;;;;5139953;27;20046;-82
2022/07/06 07:50:43;;;;;;;5.80;1.35;;;;;;;;;;5125504;28;20027;-82
2022/07/06 07:53:09;;;;;;;6.68;1.45;;;;;;;;;;5124890;28;20593;-79
2022/07/06 07:55:35;;;;;;;3.55;0.98;;;;;;;;;;5125196;28;20031;-81
2022/07/06 07:58:01;;;;;;;6.22;1.27;;;;;;;;;;5143129;28;20052;-80
2022/07/06 08:00:28;;;;;;;7.07;1.17;;;;;;;;;;5126557;28;20031;-81
2022/07/06 08:02:54;;;;;;;4.65;1.10;;;;;;;;;;5124785;28;20031;-86
2022/07/06 08:05:21;;;;;;;6.10;1.20;;;;;;;;;;5118214;28;20046;-84
2022/07/06 08:07:48;;;;;;;4.43;1.73;;;;;;;;;;5120427;28;20439;-83
2022/07/06 08:10:14;;;;;;;3.47;1.00;;;;;;;;;;5100709;28;20127;-83
2022/07/06 08:12:41;;;;;;;5.85;1.10;;;;;;;;;;5116736;28;20067;-86
2022/07/06 08:15:13;;;;;;;5.00;1.02;;;;;;;;;;5101008;28;20062;-85
2022/07/06 08:17:43;;;;;;;1.48;0.80;;;;;;;;;;5117579;28;20043;-85
2022/07/06 08:20:09;;;;;;;4.13;0.90;;;;;;;;;;5121996;28;20036;-84
2022/07/06 08:22:36;;;;;;;2.60;0.90;;;;;;;;;;5102690;28;20066;-84
2022/07/06 08:25:02;;;;;;;4.18;0.95;;;;;;;;;;5099881;28;20073;-84
2022/07/06 08:27:28;;;;;;;6.53;1.65;;;;;;;;;;5100788;28;20032;-84
2022/07/06 08:29:53;;;;;;;3.38;1.02;;;;;;;;;;5101943;28;20500;-84
2022/07/06 08:32:20;;;;;;;5.70;0.93;;;;;;;;;;5100957;28;20068;-83
2022/07/06 08:34:47;;;;;;;6.90;1.20;;;;;;;;;;5113285;27;20073;-83
2022/07/06 08:37:15;;;;;;;2.50;1.00;;;;;;;;;;5141884;27;20039;-84
2022/07/06 08:39:42;;;;;;;2.10;0.88;;;;;;;;;;5144759;27;20488;-84
2022/07/06 08:42:07;;;;;;;6.60;0.90;;;;;;;;;;5125311;27;20035;-83
2022/07/06 08:44:38;;;;;;;8.63;1.25;;;;;;;;;;5123818;27;20043;-83
2022/07/06 08:47:07;;;;;;;1.63;0.80;;;;;;;;;;5124151;27;20034;-84
2022/07/06 08:49:36;;;;;;;4.10;1.23;;;;;;;;;;5140621;27;20043;-83
2022/07/06 08:52:04;;;;;;;3.08;1.10;;;;;;;;;;5141101;27;20035;-84
2022/07/06 08:54:36;;;;;;;4.13;0.98;;;;;;;;;;5125059;27;20445;-84
2022/07/06 08:57:03;;;;;;;2.83;0.88;;;;;;;;;;5125840;27;20039;-84
2022/07/06 08:59:32;;;;;;;6.65;1.33;;;;;;;;;;5127245;27;20027;-83
2022/07/06 09:02:00;;;;;;;3.92;0.90;;;;;;;;;;5125172;27;20050;-83
2022/07/06 09:04:27;;;;;;;5.30;1.15;;;;;;;;;;5121670;27;20036;-83
2022/07/06 09:06:54;;;;;;;4.38;1.00;;;;;;;;;;5103694;28;20061;-84
2022/07/06 09:09:32;;;;;;;1.63;0.85;;;;;;;;;;5105047;28;20034;-84
2022/07/06 09:11:57;;;;;;;4.70;0.90;;;;;;;;;;5120551;28;20035;-83
2022/07/06 09:14:23;;;;;;;19.25;10.45;;;;;;;;;;5102865;28;20035;-83
2022/07/06 09:16:52;;;;;;;17.23;9.85;;;;;;;;;;5101947;28;20405;-83
2022/07/06 09:19:21;;;;;;;3.05;1.42;;;;;;;;;;5103479;28;20496;-84
2022/07/06 09:21:47;;;;;;;3.47;1.02;;;;;;;;;;5103593;28;20036;-84
2022/07/06 09:24:13;;;;;;;5.05;1.42;;;;;;;;;;5120605;28;20036;-83
2022/07/06 09:26:41;;;;;;;6.82;1.30;;;;;;;;;;5105997;28;20080;-77
2022/07/06 09:29:07;;;;;;;3.63;1.10;;;;;;;;;;5113938;28;20089;-76
2022/07/06 09:31:33;;;;;;;4.75;1.10;;;;;;;;;;5113651;28;20039;-76
2022/07/06 09:34:07;;;;;;;1.70;0.73;;;;;;;;;;5095844;28;20028;-76
2022/07/06 09:36:42;;;;;;;5.75;1.15;;;;;;;;;;5114552;27;20039;-77
2022/07/06 09:39:15;;;;;;;6.10;1.40;;;;;;;;;;5137270;27;20070;-76
2022/07/06 09:41:40;;;;;;;1.13;0.75;;;;;;;;;;5137223;27;20031;-75
2022/07/06 09:44:06;;;;;;;5.95;1.05;;;;;;;;;;5154588;27;20080;-76
2022/07/06 09:46:39;;;;;;;3.78;0.85;;;;;;;;;;5154587;27;20037;-77
2022/07/06 09:49:06;;;;;;;2.95;0.65;;;;;;;;;;5155184;27;20069;-76
2022/07/06 09:51:36;;;;;;;2.33;0.80;;;;;;;;;;5156213;27;20061;-76
2022/07/06 09:54:07;;;;;;;4.00;0.88;;;;;;;;;;5156077;27;20046;-76
2022/07/06 09:56:40;;;;;;;9.98;1.33;;;;;;;;;;5155893;27;20066;-77
2022/07/06 09:59:09;;;;;;;6.75;0.90;;;;;;;;;;5137974;27;20476;-76
2022/07/06 10:01:35;;;;;;;3.83;1.60;;;;;;;;;;5125703;27;20027;-79
2022/07/06 10:04:01;;;;;;;7.57;1.60;;;;;;;;;;5123646;27;20395;-78
2022/07/06 10:06:28;;;;;;;8.63;1.17;;;;;;;;;;5117076;27;20111;-77
2022/07/06 10:08:57;;;;;;;5.90;0.88;;;;;;;;;;5115548;28;20122;-79
2022/07/06 10:11:24;;;;;;;7.72;1.00;;;;;;;;;;5114768;28;20020;-76
2022/07/06 10:13:54;;;;;;;3.13;0.80;;;;;;;;;;5124135;27;20027;-76
2022/07/06 10:16:22;;;;;;;2.25;0.80;;;;;;;;;;5116642;27;20381;-75
2022/07/06 10:18:49;;;;;;;2.45;0.85;;;;;;;;;;5133577;27;20027;-74
2022/07/06 10:21:17;;;;;;;4.50;1.88;;;;;;;;;;5116627;27;20070;-76
2022/07/06 10:23:43;;;;;;;3.20;1.35;;;;;;;;;;5134203;27;20054;-75
2022/07/06 10:26:09;;;;;;;7.65;1.20;;;;;;;;;;5134296;27;20035;-76
2022/07/06 10:28:35;;;;;;;3.05;0.90;;;;;;;;;;5136083;27;20046;-80
2022/07/06 10:31:01;;;;;;;5.78;1.25;;;;;;;;;;5118605;27;20028;-78
2022/07/06 10:33:26;;;;;;;5.22;0.90;;;;;;;;;;5137427;27;20034;-80
2022/07/06 10:35:52;;;;;;;6.82;0.70;;;;;;;;;;5139111;27;20468;-80
2022/07/06 10:38:19;;;;;;;3.10;0.90;;;;;;;;;;5104898;27;20076;-81
2022/07/06 10:41:03;;;;;;;2.30;0.65;;;;;;;;;;5116535;28;20420;-79
2022/07/06 10:43:34;;;;;;;4.20;1.08;;;;;;;;;;5119786;28;20042;-82
2022/07/06 10:46:15;;;;;;;4.63;0.93;;;;;;;;;;5103927;27;20094;-82
2022/07/06 10:48:42;;;;;;;8.25;1.05;;;;;;;;;;5134873;27;20065;-77
2022/07/06 10:51:11;;;;;;;3.42;0.95;;;;;;;;;;5133489;27;20039;-77
2022/07/06 10:53:39;;;;;;;1.75;0.60;;;;;;;;;;5118499;27;20477;-75
2022/07/06 10:56:11;;;;;;;4.38;1.00;;;;;;;;;;5112209;28;20038;-75
2022/07/06 10:58:45;;;;;;;6.75;0.98;;;;;;;;;;5112825;28;20043;-75
2022/07/06 11:01:11;;;;;;;8.30;1.07;;;;;;;;;;5112464;28;20031;-75
2022/07/06 11:03:46;;;;;;;5.15;0.80;;;;;;;;;;5123557;27;20081;-76
2022/07/06 11:06:23;;;;;;;2.35;0.60;;;;;;;;;;5115477;28;20035;-75
2022/07/06 11:08:55;;;;;;;2.08;0.70;;;;;;;;;;5120455;27;20038;-76
2022/07/06 11:11:25;;;;;;;2.42;0.77;;;;;;;;;;5129791;28;20031;-76
2022/07/06 11:13:53;;;;;;;2.67;0.63;;;;;;;;;;5132379;27;20039;-76
2022/07/06 11:16:22;;;;;;;2.45;0.98;;;;;;;;;;5132625;27;20122;-76
2022/07/06 11:19:04;;;;;;;2.97;0.70;;;;;;;;;;5133743;27;20345;-76
2022/07/06 11:21:37;;;;;;;4.28;1.00;;;;;;;;;;5132649;27;20027;-76
2022/07/06 11:24:05;;;;;;;2.53;0.55;;;;;;;;;;5133534;27;20060;-76
2022/07/06 11:26:32;;;;;;;3.25;1.10;;;;;;;;;;5115275;28;20031;-76
2022/07/06 11:29:00;;;;;;;3.15;0.90;;;;;;;;;;5132615;27;20464;-76
2022/07/06 11:31:26;;;;;;;5.50;0.88;;;;;;;;;;5133054;28;20543;-76
2022/07/06 11:33:52;;;;;;;3.53;0.85;;;;;;;;;;5115244;28;20053;-77
2022/07/06 11:36:20;;;;;;;1.13;0.45;;;;;;;;;;5115476;28;20059;-77
2022/07/06 11:38:47;;;;;;;0.70;0.55;;;;;;;;;;5112163;27;20078;-77
2022/07/06 11:41:14;;;;;;;2.72;0.90;;;;;;;;;;5095097;28;20038;-76
2022/07/06 11:43:42;;;;;;;3.63;0.88;;;;;;;;;;5111308;28;20027;-76
2022/07/06 11:46:26;;;;;;;3.15;0.85;;;;;;;;;;5111564;28;20393;-76
2022/07/06 11:48:54;;;;;;;2.22;0.80;;;;;;;;;;5111985;28;20511;-76
2022/07/06 11:51:21;;;;;;;2.97;0.68;;;;;;;;;;5114862;27;20050;-76
2022/07/06 11:53:49;;;;;;;4.28;0.90;;;;;;;;;;5132598;28;20400;-76
2022/07/06 11:56:18;;;;;;;2.60;0.75;;;;;;;;;;5133353;27;20031;-76
2022/07/06 11:58:46;;;;;;;1.17;0.47;;;;;;;;;;5136137;27;20038;-75
2022/07/06 12:01:12;;;;;;;3.47;0.80;;;;;;;;;;5136811;27;20035;-75
2022/07/06 12:03:39;;;;;;;4.80;0.75;;;;;;;;;;5136054;27;20046;-76
2022/07/06 12:06:12;;;;;;;8.65;0.77;;;;;;;;;;5118993;27;20039;-75
2022/07/06 12:08:47;;;;;;;4.72;1.13;;;;;;;;;;5135573;27;20031;-76
2022/07/06 12:11:21;;;;;;;5.00;0.90;;;;;;;;;;5114905;28;20027;-76
2022/07/06 12:13:49;;;;;;;3.45;0.80;;;;;;;;;;5098337;28;20559;-75
2022/07/06 12:16:16;;;;;;;3.30;0.90;;;;;;;;;;5098268;28;20401;-75
2022/07/06 12:18:43;;;;;;;2.72;1.00;;;;;;;;;;5115511;28;20039;-76
2022/07/06 12:21:17;;;;;;;5.22;0.90;;;;;;;;;;5114940;28;20031;-75
2022/07/06 12:23:47;;;;;;;5.43;0.82;;;;;;;;;;5098009;28;20042;-75
2022/07/06 12:26:14;;;;;;;10.50;0.98;;;;;;;;;;5116178;27;20039;-76
2022/07/06 12:28:41;;;;;;;2.03;0.50;;;;;;;;;;5116626;28;20118;-75
2022/07/06 12:31:07;;;;;;;3.95;0.70;;;;;;;;;;5115768;28;20035;-78
2022/07/06 12:33:32;;;;;;;3.42;0.73;;;;;;;;;;5100244;28;20028;-77
2022/07/06 12:36:09;;;;;;;10.13;1.30;;;;;;;;;;5129611;27;20473;-78
2022/07/06 12:38:34;;;;;;;4.80;0.73;;;;;;;;;;5131179;27;20050;-78
2022/07/06 12:41:02;;;;;;;3.63;0.98;;;;;;;;;;5126678;27;20035;-75
2022/07/06 12:43:39;;;;;;;3.88;1.23;;;;;;;;;;5114953;28;20492;-75
2022/07/06 12:46:29;;;;;;;3.80;1.15;;;;;;;;;;5097248;28;20438;-76
2022/07/06 12:48:56;;;;;;;3.65;0.80;;;;;;;;;;5114811;28;20153;-76
2022/07/06 12:51:23;;;;;;;7.57;1.05;;;;;;;;;;5097946;27;20384;-75
2022/07/06 12:53:50;;;;;;;5.38;1.00;;;;;;;;;;5117617;27;20092;-75
2022/07/06 12:56:17;;;;;;;3.05;0.75;;;;;;;;;;5135508;27;20031;-75
2022/07/06 12:58:59;;;;;;;1.75;0.60;;;;;;;;;;5135279;27;20031;-75
2022/07/06 13:01:24;;;;;;;3.67;1.10;;;;;;;;;;5136482;27;20114;-76
2022/07/06 13:03:55;;;;;;;3.92;0.90;;;;;;;;;;5134607;27;20069;-75
2022/07/06 13:06:29;;;;;;;4.30;0.88;;;;;;;;;;5132705;27;20096;-75
2022/07/06 13:08:54;;;;;;;6.18;0.80;;;;;;;;;;5132121;27;20050;-75
2022/07/06 13:11:19;;;;;;;1.20;0.60;;;;;;;;;;5134093;27;20071;-75
2022/07/06 13:13:45;;;;;;;1.33;0.55;;;;;;;;;;5115601;27;20031;-75
2022/07/06 13:16:11;;;;;;;3.28;0.80;;;;;;;;;;5115092;27;20488;-75
2022/07/06 13:18:36;;;;;;;7.90;0.70;;;;;;;;;;5133985;27;20034;-75
2022/07/06 13:21:01;;;;;;;3.85;0.98;;;;;;;;;;5135076;27;20046;-75
2022/07/06 13:23:27;;;;;;;4.43;0.93;;;;;;;;;;5134077;27;20035;-75
2022/07/06 13:25:52;;;;;;;6.22;1.27;;;;;;;;;;5135668;27;20054;-75
2022/07/06 13:28:19;;;;;;;2.40;0.60;;;;;;;;;;5134860;27;20035;-75
2022/07/06 13:30:45;;;;;;;3.17;0.95;;;;;;;;;;5117304;27;20481;-75
2022/07/06 13:33:11;;;;;;;2.80;0.63;;;;;;;;;;5135043;27;20035;-75
2022/07/06 13:35:38;;;;;;;24.52;1.40;;;;;;;;;;5135423;27;20038;-75
2022/07/06 13:38:05;;;;;;;3.78;0.80;;;;;;;;;;5117145;27;20035;-75
2022/07/06 13:40:34;;;;;;;9.50;1.88;;;;;;;;;;5116862;27;20502;-75
2022/07/06 13:42:59;;;;;;;5.95;0.85;;;;;;;;;;5134311;27;20621;-75
2022/07/06 13:45:25;;;;;;;5.90;0.80;;;;;;;;;;5134362;27;20126;-75
2022/07/06 13:47:51;;;;;;;3.08;0.90;;;;;;;;;;5134471;27;20023;-75
2022/07/06 13:50:17;;;;;;;10.25;1.20;;;;;;;;;;5117474;27;20043;-75
2022/07/06 13:52:42;;;;;;;7.63;1.20;;;;;;;;;;5135266;27;20035;-75
2022/07/06 13:55:09;;;;;;;1.73;0.85;;;;;;;;;;5135531;27;20499;-75
2022/07/06 13:57:34;;;;;;;3.53;0.80;;;;;;;;;;5135353;27;20134;-75
2022/07/06 14:00:01;;;;;;;5.25;0.80;;;;;;;;;;5117060;27;20050;-75
2022/07/06 14:02:27;;;;;;;6.07;1.00;;;;;;;;;;5116734;27;20035;-75
2022/07/06 14:04:54;;;;;;;3.47;0.73;;;;;;;;;;5115932;27;20039;-75
2022/07/06 14:07:20;;;;;;;4.38;1.02;;;;;;;;;;5116688;27;20105;-75
2022/07/06 14:09:51;;;;;;;3.53;0.82;;;;;;;;;;5134020;27;20035;-75
2022/07/06 14:12:16;;;;;;;2.45;0.90;;;;;;;;;;5134116;27;20069;-75
2022/07/06 14:14:42;;;;;;;4.93;0.98;;;;;;;;;;5134966;27;20023;-75
2022/07/06 14:17:08;;;;;;;2.10;0.73;;;;;;;;;;5133534;27;20027;-75
2022/07/06 14:19:34;;;;;;;19.52;1.63;;;;;;;;;;5134578;27;20062;-75
2022/07/06 14:21:59;;;;;;;4.13;0.65;;;;;;;;;;5134804;27;20039;-75
2022/07/06 14:24:25;;;;;;;4.80;0.93;;;;;;;;;;5134501;27;20053;-75
2022/07/06 14:26:53;;;;;;;1.27;0.70;;;;;;;;;;5134696;27;20038;-75
2022/07/06 14:29:18;;;;;;;3.33;1.13;;;;;;;;;;5134724;27;20026;-75
2022/07/06 14:31:43;;;;;;;2.95;1.25;;;;;;;;;;5134622;27;20035;-75
2022/07/06 14:34:09;;;;;;;3.83;0.80;;;;;;;;;;5133313;27;20034;-76
2022/07/06 14:36:37;;;;;;;7.70;1.98;;;;;;;;;;5115667;27;20038;-75
2022/07/06 14:39:03;;;;;;;8.48;1.05;;;;;;;;;;5134406;27;20501;-75
2022/07/06 14:41:29;;;;;;;12.20;1.20;;;;;;;;;;5133537;27;20034;-75
2022/07/06 14:43:54;;;;;;;2.65;1.00;;;;;;;;;;5116126;27;20461;-75
2022/07/06 14:46:20;;;;;;;2.67;0.57;;;;;;;;;;5134352;27;20084;-75
2022/07/06 14:48:45;;;;;;;4.03;0.50;;;;;;;;;;5133294;27;20039;-75